PSERI SBCG-SBPO
Flight info
| Callsign | PSERI |
|---|---|
| Flight time | 0h 58m |
| Altitude | 43000 |
| Route | POTLA DCT GAXUT DCT ILMIS DCT PALOX |
| Aircraft | LJ35/M-SGHRWXY/SB1 |
Departure
| Time | 2026-05-05 15:29 |
|---|---|
| Airport | Campo Grande Airport (SBCG) |
Arrival
| Time | 2026-05-05 16:28 |
|---|---|
| Airport | Juvenal Loureiro Cardoso Airport (SBPO) |
| Time | Latitude | Longitude | Altitude | Speed | Heading |
|---|---|---|---|---|---|
| 2026-05-05 15:21 | -20.45841 | -54.67137 | 1833 ft | 0 kts | 149° |
| 2026-05-05 15:26 | -20.45875 | -54.67136 | 1833 ft | 10 kts | 185° |
| 2026-05-05 15:26 | -20.45977 | -54.67135 | 1833 ft | 19 kts | 174° |
| 2026-05-05 15:26 | -20.46133 | -54.67117 | 1833 ft | 25 kts | 174° |
| 2026-05-05 15:27 | -20.46321 | -54.67097 | 1833 ft | 29 kts | 174° |
| 2026-05-05 15:27 | -20.46504 | -54.67177 | 1833 ft | 30 kts | 223° |
| 2026-05-05 15:27 | -20.46597 | -54.67269 | 1833 ft | 19 kts | 224° |
| 2026-05-05 15:27 | -20.46705 | -54.67369 | 1833 ft | 22 kts | 222° |
| 2026-05-05 15:28 | -20.46828 | -54.67489 | 1833 ft | 25 kts | 222° |
| 2026-05-05 15:28 | -20.46938 | -54.67464 | 1833 ft | 21 kts | 134° |
| 2026-05-05 15:28 | -20.46999 | -54.67396 | 1832 ft | 5 kts | 40° |
| 2026-05-05 15:28 | -20.46980 | -54.67378 | 1832 ft | 28 kts | 41° |
| 2026-05-05 15:29 | -20.46535 | -54.66950 | 1833 ft | 139 kts | 42° |
| 2026-05-05 15:29 | -20.45729 | -54.66165 | 2708 ft | 166 kts | 37° |
| 2026-05-05 15:29 | -20.44767 | -54.65220 | 3578 ft | 210 kts | 39° |
| 2026-05-05 15:29 | -20.43542 | -54.64071 | 4320 ft | 244 kts | 39° |
| 2026-05-05 15:30 | -20.42265 | -54.62872 | 5791 ft | 246 kts | 39° |
| 2026-05-05 15:30 | -20.41033 | -54.61581 | 7222 ft | 253 kts | 49° |
| 2026-05-05 15:30 | -20.40190 | -54.59915 | 8502 ft | 260 kts | 68° |
| 2026-05-05 15:30 | -20.39918 | -54.57982 | 9619 ft | 271 kts | 92° |
| 2026-05-05 15:31 | -20.40227 | -54.56682 | 10341 ft | 278 kts | 111° |
| 2026-05-05 15:31 | -20.41399 | -54.55015 | 11339 ft | 288 kts | 139° |
| 2026-05-05 15:31 | -20.43170 | -54.54012 | 12342 ft | 292 kts | 160° |
| 2026-05-05 15:31 | -20.45110 | -54.53333 | 13340 ft | 295 kts | 162° |
| 2026-05-05 15:32 | -20.47084 | -54.52684 | 14473 ft | 297 kts | 163° |
| 2026-05-05 15:32 | -20.49061 | -54.52030 | 15691 ft | 300 kts | 163° |
| 2026-05-05 15:32 | -20.51067 | -54.51350 | 16855 ft | 304 kts | 163° |
| 2026-05-05 15:32 | -20.53767 | -54.50432 | 18417 ft | 311 kts | 163° |
| 2026-05-05 15:33 | -20.55166 | -54.49960 | 19115 ft | 314 kts | 164° |
| 2026-05-05 15:33 | -20.57271 | -54.49250 | 20100 ft | 320 kts | 164° |
| 2026-05-05 15:33 | -20.59411 | -54.48528 | 21090 ft | 326 kts | 164° |
| 2026-05-05 15:33 | -20.61591 | -54.47781 | 22088 ft | 332 kts | 164° |
| 2026-05-05 15:34 | -20.63804 | -54.47025 | 23112 ft | 337 kts | 165° |
| 2026-05-05 15:34 | -20.66056 | -54.46268 | 24059 ft | 342 kts | 166° |
| 2026-05-05 15:34 | -20.68343 | -54.45497 | 24935 ft | 347 kts | 166° |
| 2026-05-05 15:34 | -20.70657 | -54.44709 | 25813 ft | 351 kts | 166° |
| 2026-05-05 15:35 | -20.73001 | -54.43911 | 26686 ft | 356 kts | 166° |
| 2026-05-05 15:35 | -20.75345 | -54.43116 | 27536 ft | 360 kts | 166° |
| 2026-05-05 15:35 | -20.78569 | -54.42023 | 28651 ft | 366 kts | 167° |
| 2026-05-05 15:35 | -20.80184 | -54.41473 | 29200 ft | 370 kts | 167° |
| 2026-05-05 15:36 | -20.82651 | -54.40634 | 30007 ft | 375 kts | 167° |
| 2026-05-05 15:36 | -20.85149 | -54.39785 | 30734 ft | 378 kts | 167° |
| 2026-05-05 15:36 | -20.87654 | -54.38932 | 31499 ft | 378 kts | 167° |
| 2026-05-05 15:36 | -20.90166 | -54.38076 | 32251 ft | 379 kts | 168° |
| 2026-05-05 15:37 | -20.92680 | -54.37220 | 32975 ft | 380 kts | 168° |
| 2026-05-05 15:37 | -20.95205 | -54.36362 | 33682 ft | 381 kts | 168° |
| 2026-05-05 15:37 | -20.97737 | -54.35499 | 34308 ft | 382 kts | 168° |
| 2026-05-05 15:37 | -21.00279 | -54.34633 | 34813 ft | 385 kts | 169° |
| 2026-05-05 15:38 | -21.02843 | -54.33759 | 35281 ft | 388 kts | 169° |
| 2026-05-05 15:38 | -21.05430 | -54.32877 | 35735 ft | 391 kts | 169° |
| 2026-05-05 15:38 | -21.08032 | -54.31990 | 36175 ft | 394 kts | 169° |
| 2026-05-05 15:38 | -21.10653 | -54.31095 | 36594 ft | 397 kts | 169° |
| 2026-05-05 15:39 | -21.13294 | -54.30193 | 37001 ft | 399 kts | 169° |
| 2026-05-05 15:39 | -21.15947 | -54.29287 | 37388 ft | 402 kts | 170° |
| 2026-05-05 15:39 | -21.18624 | -54.28373 | 37758 ft | 405 kts | 170° |
| 2026-05-05 15:39 | -21.21314 | -54.27454 | 38116 ft | 407 kts | 170° |
| 2026-05-05 15:40 | -21.24020 | -54.26528 | 38462 ft | 409 kts | 170° |
| 2026-05-05 15:40 | -21.26740 | -54.25597 | 38797 ft | 411 kts | 170° |
| 2026-05-05 15:40 | -21.29474 | -54.24662 | 39050 ft | 414 kts | 170° |
| 2026-05-05 15:40 | -21.32224 | -54.23721 | 39278 ft | 416 kts | 170° |
| 2026-05-05 15:41 | -21.34988 | -54.22774 | 39499 ft | 418 kts | 170° |
| 2026-05-05 15:41 | -21.37765 | -54.21823 | 39707 ft | 420 kts | 170° |
| 2026-05-05 15:41 | -21.40556 | -54.20866 | 39906 ft | 422 kts | 170° |
| 2026-05-05 15:41 | -21.43361 | -54.19904 | 40082 ft | 424 kts | 170° |
| 2026-05-05 15:42 | -21.46174 | -54.18939 | 40267 ft | 425 kts | 170° |
| 2026-05-05 15:42 | -21.49001 | -54.17969 | 40497 ft | 425 kts | 170° |
| 2026-05-05 15:42 | -21.51799 | -54.17005 | 40863 ft | 421 kts | 170° |
| 2026-05-05 15:42 | -21.54582 | -54.16049 | 41238 ft | 419 kts | 171° |
| 2026-05-05 15:43 | -21.57350 | -54.15100 | 41615 ft | 416 kts | 171° |
| 2026-05-05 15:43 | -21.60063 | -54.14168 | 41991 ft | 414 kts | 171° |
| 2026-05-05 15:43 | -21.62795 | -54.13229 | 42376 ft | 411 kts | 171° |
| 2026-05-05 15:43 | -21.65516 | -54.12292 | 42771 ft | 409 kts | 171° |
| 2026-05-05 15:44 | -21.68218 | -54.11362 | 43168 ft | 407 kts | 171° |
| 2026-05-05 15:44 | -21.70901 | -54.10438 | 43576 ft | 404 kts | 171° |
| 2026-05-05 15:44 | -21.73571 | -54.09519 | 43987 ft | 402 kts | 171° |
| 2026-05-05 15:44 | -21.76229 | -54.08603 | 44405 ft | 399 kts | 171° |
| 2026-05-05 15:45 | -21.78861 | -54.07696 | 44816 ft | 396 kts | 171° |
| 2026-05-05 15:45 | -21.81472 | -54.06795 | 45152 ft | 393 kts | 171° |
| 2026-05-05 15:45 | -21.84063 | -54.05902 | 45493 ft | 389 kts | 171° |
| 2026-05-05 15:45 | -21.86633 | -54.05015 | 45830 ft | 386 kts | 172° |
| 2026-05-05 15:46 | -21.89181 | -54.04135 | 46163 ft | 383 kts | 172° |
| 2026-05-05 15:46 | -21.91701 | -54.03265 | 46497 ft | 379 kts | 172° |
| 2026-05-05 15:46 | -21.94200 | -54.02401 | 46835 ft | 375 kts | 172° |
| 2026-05-05 15:46 | -21.96668 | -54.01548 | 47167 ft | 371 kts | 172° |
| 2026-05-05 15:47 | -21.99111 | -54.00704 | 47500 ft | 366 kts | 172° |
| 2026-05-05 15:47 | -22.00740 | -54.00141 | 47717 ft | 363 kts | 172° |
| 2026-05-05 15:47 | -22.03905 | -53.99045 | 48155 ft | 357 kts | 172° |
| 2026-05-05 15:47 | -22.06248 | -53.98234 | 48479 ft | 352 kts | 173° |
| 2026-05-05 15:48 | -22.08566 | -53.97431 | 48795 ft | 346 kts | 173° |
| 2026-05-05 15:48 | -22.10840 | -53.96643 | 49113 ft | 340 kts | 173° |
| 2026-05-05 15:48 | -22.13083 | -53.95869 | 49165 ft | 344 kts | 173° |
| 2026-05-05 15:48 | -22.15440 | -53.95073 | 48582 ft | 367 kts | 173° |
| 2026-05-05 15:49 | -22.17953 | -53.94213 | 47918 ft | 392 kts | 172° |
| 2026-05-05 15:49 | -22.20623 | -53.93274 | 47152 ft | 410 kts | 171° |
| 2026-05-05 15:49 | -22.23331 | -53.92311 | 46306 ft | 410 kts | 171° |
| 2026-05-05 15:49 | -22.26043 | -53.91366 | 45437 ft | 409 kts | 172° |
| 2026-05-05 15:50 | -22.28749 | -53.90439 | 44516 ft | 408 kts | 172° |
| 2026-05-05 15:50 | -22.31444 | -53.89506 | 43443 ft | 408 kts | 171° |
| 2026-05-05 15:50 | -22.34136 | -53.88563 | 43124 ft | 403 kts | 171° |
| 2026-05-05 15:51 | -22.39576 | -53.86681 | 43124 ft | 417 kts | 171° |
| 2026-05-05 15:51 | -22.45170 | -53.84730 | 43121 ft | 427 kts | 171° |
| 2026-05-05 15:52 | -22.50855 | -53.82748 | 43117 ft | 430 kts | 171° |
| 2026-05-05 15:52 | -22.56554 | -53.80761 | 43114 ft | 430 kts | 171° |
| 2026-05-05 15:53 | -22.62255 | -53.78773 | 43121 ft | 430 kts | 171° |
| 2026-05-05 15:53 | -22.67953 | -53.76783 | 43120 ft | 430 kts | 171° |
| 2026-05-05 15:54 | -22.73655 | -53.74790 | 43116 ft | 430 kts | 171° |
| 2026-05-05 15:54 | -22.79352 | -53.72797 | 43119 ft | 430 kts | 171° |
| 2026-05-05 15:55 | -22.85046 | -53.70803 | 43118 ft | 430 kts | 171° |
| 2026-05-05 15:55 | -22.90740 | -53.68808 | 43116 ft | 430 kts | 171° |
| 2026-05-05 15:56 | -22.96436 | -53.66810 | 43117 ft | 430 kts | 171° |
| 2026-05-05 15:56 | -23.02131 | -53.64811 | 43121 ft | 430 kts | 171° |
| 2026-05-05 15:57 | -23.07825 | -53.62810 | 43118 ft | 430 kts | 171° |
| 2026-05-05 15:57 | -23.13522 | -53.60807 | 43117 ft | 430 kts | 171° |
| 2026-05-05 15:58 | -23.19215 | -53.58803 | 43116 ft | 430 kts | 171° |
| 2026-05-05 15:58 | -23.24869 | -53.56812 | 43119 ft | 430 kts | 171° |
| 2026-05-05 15:59 | -23.30561 | -53.54804 | 43122 ft | 430 kts | 171° |
| 2026-05-05 15:59 | -23.36256 | -53.52794 | 43127 ft | 430 kts | 172° |
| 2026-05-05 16:00 | -23.41947 | -53.50784 | 43123 ft | 430 kts | 172° |
| 2026-05-05 16:00 | -23.47636 | -53.48773 | 43122 ft | 430 kts | 172° |
| 2026-05-05 16:01 | -23.53326 | -53.46760 | 43119 ft | 430 kts | 172° |
| 2026-05-05 16:01 | -23.59009 | -53.44743 | 43123 ft | 429 kts | 172° |
| 2026-05-05 16:02 | -23.64696 | -53.42731 | 43121 ft | 430 kts | 172° |
| 2026-05-05 16:02 | -23.70391 | -53.40708 | 43129 ft | 430 kts | 172° |
| 2026-05-05 16:03 | -23.76087 | -53.38686 | 43127 ft | 431 kts | 172° |
| 2026-05-05 16:03 | -23.81786 | -53.36660 | 43131 ft | 431 kts | 172° |
| 2026-05-05 16:04 | -23.87491 | -53.34630 | 43130 ft | 431 kts | 172° |
| 2026-05-05 16:04 | -23.93193 | -53.32599 | 43133 ft | 431 kts | 172° |
| 2026-05-05 16:05 | -23.98899 | -53.30564 | 43132 ft | 431 kts | 172° |
| 2026-05-05 16:05 | -24.04595 | -53.28532 | 43132 ft | 431 kts | 172° |
| 2026-05-05 16:06 | -24.10297 | -53.26495 | 43135 ft | 431 kts | 172° |
| 2026-05-05 16:06 | -24.15996 | -53.24458 | 43133 ft | 431 kts | 172° |
| 2026-05-05 16:07 | -24.21656 | -53.22432 | 43138 ft | 431 kts | 172° |
| 2026-05-05 16:07 | -24.27351 | -53.20393 | 43131 ft | 431 kts | 172° |
| 2026-05-05 16:08 | -24.33049 | -53.18350 | 43131 ft | 431 kts | 172° |
| 2026-05-05 16:08 | -24.35870 | -53.17332 | 42790 ft | 418 kts | 172° |
| 2026-05-05 16:08 | -24.38570 | -53.16350 | 42349 ft | 401 kts | 173° |
| 2026-05-05 16:08 | -24.41178 | -53.15492 | 41884 ft | 380 kts | 178° |
| 2026-05-05 16:09 | -24.43747 | -53.15016 | 41352 ft | 371 kts | 183° |
| 2026-05-05 16:09 | -24.46268 | -53.14691 | 40825 ft | 369 kts | 184° |
| 2026-05-05 16:09 | -24.48628 | -53.14319 | 40350 ft | 372 kts | 181° |
| 2026-05-05 16:09 | -24.51169 | -53.13749 | 39851 ft | 373 kts | 179° |
| 2026-05-05 16:10 | -24.53698 | -53.13167 | 39367 ft | 369 kts | 180° |
| 2026-05-05 16:10 | -24.56231 | -53.12671 | 38892 ft | 371 kts | 181° |
| 2026-05-05 16:10 | -24.58782 | -53.12195 | 38349 ft | 375 kts | 180° |
| 2026-05-05 16:10 | -24.61111 | -53.11721 | 37858 ft | 379 kts | 179° |
| 2026-05-05 16:11 | -24.63736 | -53.11174 | 37320 ft | 384 kts | 179° |
| 2026-05-05 16:11 | -24.71686 | -53.09548 | 35799 ft | 395 kts | 178° |
| 2026-05-05 16:12 | -24.74402 | -53.09002 | 35329 ft | 399 kts | 177° |
| 2026-05-05 16:12 | -24.79903 | -53.07885 | 34365 ft | 404 kts | 176° |
| 2026-05-05 16:13 | -24.88260 | -53.06180 | 32800 ft | 410 kts | 176° |
| 2026-05-05 16:13 | -24.91067 | -53.05610 | 32285 ft | 411 kts | 176° |
| 2026-05-05 16:13 | -24.93891 | -53.05033 | 31777 ft | 413 kts | 176° |
| 2026-05-05 16:14 | -24.99552 | -53.03876 | 30791 ft | 415 kts | 175° |
| 2026-05-05 16:14 | -25.05240 | -53.02714 | 29760 ft | 416 kts | 175° |
| 2026-05-05 16:15 | -25.10904 | -53.01555 | 28672 ft | 417 kts | 175° |
| 2026-05-05 16:15 | -25.16640 | -53.00381 | 27607 ft | 416 kts | 174° |
| 2026-05-05 16:16 | -25.22286 | -52.99224 | 26600 ft | 415 kts | 174° |
| 2026-05-05 16:16 | -25.27964 | -52.98059 | 25610 ft | 414 kts | 174° |
| 2026-05-05 16:17 | -25.32711 | -52.97085 | 24809 ft | 413 kts | 174° |
| 2026-05-05 16:17 | -25.35497 | -52.96513 | 24347 ft | 413 kts | 173° |
| 2026-05-05 16:18 | -25.41142 | -52.95351 | 23370 ft | 412 kts | 173° |
| 2026-05-05 16:18 | -25.43956 | -52.94773 | 22825 ft | 411 kts | 173° |
| 2026-05-05 16:18 | -25.49564 | -52.93619 | 21765 ft | 409 kts | 173° |
| 2026-05-05 16:19 | -25.52359 | -52.93043 | 21265 ft | 407 kts | 173° |
| 2026-05-05 16:19 | -25.55088 | -52.92480 | 20767 ft | 406 kts | 173° |
| 2026-05-05 16:19 | -25.60662 | -52.91331 | 19779 ft | 403 kts | 173° |
| 2026-05-05 16:20 | -25.66156 | -52.90196 | 18833 ft | 400 kts | 172° |
| 2026-05-05 16:20 | -25.71616 | -52.89070 | 17815 ft | 398 kts | 172° |
| 2026-05-05 16:21 | -25.77052 | -52.87944 | 16767 ft | 397 kts | 172° |
| 2026-05-05 16:22 | -25.85193 | -52.86257 | 15266 ft | 396 kts | 171° |
| 2026-05-05 16:22 | -25.90627 | -52.85136 | 14176 ft | 399 kts | 170° |
| 2026-05-05 16:23 | -25.96109 | -52.83994 | 12946 ft | 402 kts | 170° |
| 2026-05-05 16:23 | -25.98856 | -52.83423 | 12336 ft | 403 kts | 170° |
| 2026-05-05 16:23 | -26.04371 | -52.82278 | 11147 ft | 404 kts | 171° |
| 2026-05-05 16:24 | -26.07127 | -52.81706 | 10566 ft | 403 kts | 171° |
| 2026-05-05 16:24 | -26.09893 | -52.81133 | 9990 ft | 401 kts | 171° |
| 2026-05-05 16:24 | -26.15067 | -52.80043 | 8728 ft | 361 kts | 171° |
| 2026-05-05 16:25 | -26.17467 | -52.79555 | 8119 ft | 350 kts | 171° |
| 2026-05-05 16:25 | -26.22158 | -52.78576 | 6914 ft | 337 kts | 171° |
| 2026-05-05 16:25 | -26.24193 | -52.77860 | 6304 ft | 275 kts | 151° |
| 2026-05-05 16:26 | -26.25697 | -52.75141 | 5251 ft | 164 kts | 63° |
| 2026-05-05 16:26 | -26.24395 | -52.73224 | 4049 ft | 152 kts | 44° |
| 2026-05-05 16:27 | -26.23742 | -52.72390 | 3624 ft | 140 kts | 44° |
| 2026-05-05 16:27 | -26.23112 | -52.71567 | 3290 ft | 142 kts | 47° |
| 2026-05-05 16:27 | -26.22501 | -52.70670 | 2929 ft | 149 kts | 50° |
| 2026-05-05 16:27 | -26.21906 | -52.69742 | 2699 ft | 134 kts | 55° |
| 2026-05-05 16:28 | -26.21583 | -52.69246 | 2700 ft | 30 kts | 53° |
| 2026-05-05 16:28 | -26.21594 | -52.69208 | 2700 ft | 8 kts | 169° |
| 2026-05-05 16:28 | -26.21659 | -52.69202 | 2701 ft | 9 kts | 154° |
| 2026-05-05 16:28 | -26.21665 | -52.69198 | 2702 ft | 0 kts | 148° |